Time;durP1;ratioP1;P1;durP2;ratioP2;P2;SDS_P1;SDS_P2;PMS_P1;PMS_P2;Temp;Humidity;BMP_temperature;BMP_pressure;BME280_temperature;BME280_humidity;BME280_pressure;Samples;Min_cycle;Max_cycle;Signal;HPM_P1;HPM_P2
2021/12/14 00:00:18;;;;;;;18.17;15.00;;;9.00;99.90;;;;;;5049976;28;20233;-66
2021/12/14 00:02:45;;;;;;;20.13;13.70;;;9.00;99.90;;;;;;5031552;28;20201;-66
2021/12/14 00:05:12;;;;;;;18.83;13.50;;;9.00;99.90;;;;;;5033421;28;20192;-65
2021/12/14 00:07:38;;;;;;;18.53;13.57;;;9.00;99.90;;;;;;5037181;28;20207;-64
2021/12/14 00:13:56;;;;;;;17.23;12.60;;;9.10;99.90;;;;;;5045359;28;20315;-64
2021/12/14 00:15:58;;;;;;;19.60;14.40;;;9.10;99.90;;;;;;5033198;28;20322;-64
2021/12/14 00:18:25;;;;;;;17.30;13.50;;;9.10;99.90;;;;;;5041492;28;20219;-65
2021/12/14 00:20:55;;;;;;;17.17;12.67;;;9.00;99.90;;;;;;5036427;28;20285;-68
2021/12/14 00:26:11;;;;;;;14.30;12.77;;;8.90;99.90;;;;;;5028058;28;20317;-66
2021/12/14 00:28:36;;;;;;;17.30;12.73;;;9.00;99.90;;;;;;5031595;28;20183;-65
2021/12/14 00:31:09;;;;;;;15.87;11.77;;;8.90;99.90;;;;;;5027566;28;20292;-66
2021/12/14 00:33:35;;;;;;;16.30;12.33;;;9.00;99.90;;;;;;5034333;28;20181;-65
2021/12/14 00:36:04;;;;;;;18.63;12.73;;;9.00;99.90;;;;;;5033338;28;20255;-67
2021/12/14 00:38:33;;;;;;;17.57;14.10;;;8.90;99.90;;;;;;5033649;28;20200;-65
2021/12/14 00:41:05;;;;;;;16.83;13.17;;;9.00;99.90;;;;;;5031801;28;20200;-66
2021/12/14 00:43:30;;;;;;;13.83;11.17;;;9.10;99.90;;;;;;5028467;28;20179;-65
2021/12/14 00:45:56;;;;;;;15.93;13.17;;;9.10;99.90;;;;;;5031564;28;20204;-66
2021/12/14 00:48:22;;;;;;;16.13;13.07;;;9.00;99.90;;;;;;5042570;28;20278;-65
2021/12/14 00:50:52;;;;;;;13.77;12.07;;;9.00;99.90;;;;;;5038058;28;20239;-65
2021/12/14 00:53:18;;;;;;;15.77;12.93;;;8.90;99.90;;;;;;5029880;28;20231;-65
2021/12/14 00:55:46;;;;;;;14.80;12.60;;;9.00;99.90;;;;;;5033750;28;20554;-64
2021/12/14 00:58:14;;;;;;;14.47;12.33;;;9.00;99.90;;;;;;5033391;28;20297;-63
2021/12/14 01:00:45;;;;;;;15.03;12.93;;;9.00;99.90;;;;;;5034583;28;20315;-63
2021/12/14 01:03:11;;;;;;;17.37;14.67;;;8.90;99.90;;;;;;5029595;28;20199;-63
2021/12/14 01:05:40;;;;;;;17.73;13.57;;;8.90;99.90;;;;;;5034796;28;20206;-65
2021/12/14 01:08:09;;;;;;;19.20;13.43;;;9.00;99.90;;;;;;5031023;28;20278;-64
2021/12/14 01:10:45;;;;;;;14.67;12.33;;;9.00;99.90;;;;;;5032174;28;20228;-64
2021/12/14 01:13:11;;;;;;;18.57;13.07;;;9.10;99.90;;;;;;5028782;28;20740;-63
2021/12/14 01:15:52;;;;;;;17.77;12.63;;;9.00;99.90;;;;;;5037130;28;20234;-64
2021/12/14 01:18:30;;;;;;;13.70;11.57;;;9.10;99.90;;;;;;5031929;28;20260;-63
2021/12/14 01:21:03;;;;;;;16.13;10.73;;;9.00;99.90;;;;;;5028656;28;20171;-65
2021/12/14 01:23:33;;;;;;;14.93;11.40;;;8.90;99.90;;;;;;5028027;28;20744;-65
2021/12/14 01:26:06;;;;;;;15.90;12.00;;;8.90;99.90;;;;;;5033909;28;20204;-65
2021/12/14 01:28:33;;;;;;;17.30;12.83;;;9.00;99.90;;;;;;5031038;28;20215;-69
2021/12/14 01:31:18;;;;;;;28.30;21.27;;;9.00;99.90;;;;;;5032840;28;20210;-64
2021/12/14 01:33:50;;;;;;;13.93;10.93;;;9.00;99.90;;;;;;5024636;28;20198;-66
2021/12/14 01:42:10;;;;;;;12.70;11.07;;;9.00;99.90;;;;;;5033995;28;20183;-64
2021/12/14 01:44:45;;;;;;;13.37;10.50;;;9.00;99.90;;;;;;5029969;28;20198;-65
2021/12/14 01:47:18;;;;;;;12.90;9.80;;;9.10;99.90;;;;;;5041841;28;20232;-63
2021/12/14 01:49:44;;;;;;;15.30;10.67;;;9.00;99.90;;;;;;5046666;28;20264;-64
2021/12/14 01:52:20;;;;;;;10.73;9.33;;;9.00;99.90;;;;;;5042516;28;20595;-65
2021/12/14 01:54:51;;;;;;;12.20;9.87;;;9.00;99.90;;;;;;5022622;28;20199;-65
2021/12/14 01:57:20;;;;;;;14.00;9.77;;;8.90;99.90;;;;;;5024575;28;20315;-64
2021/12/14 01:59:47;;;;;;;17.73;10.43;;;8.90;99.90;;;;;;5044919;28;20207;-65
2021/12/14 02:02:30;;;;;;;12.80;10.20;;;8.90;99.90;;;;;;5047784;28;20192;-64
2021/12/14 02:04:59;;;;;;;11.57;9.30;;;8.90;99.90;;;;;;5025225;28;20559;-65
2021/12/14 02:07:27;;;;;;;10.97;9.20;;;8.80;99.90;;;;;;5063058;28;20202;-65
2021/12/14 02:09:57;;;;;;;11.33;8.73;;;8.80;99.90;;;;;;5046617;28;20199;-65
2021/12/14 02:12:26;;;;;;;13.27;9.47;;;8.80;99.90;;;;;;5067623;28;20277;-65
2021/12/14 02:14:59;;;;;;;9.90;8.40;;;8.80;99.90;;;;;;5053644;28;20684;-64
2021/12/14 02:17:25;;;;;;;11.57;8.67;;;8.80;99.90;;;;;;5047891;28;20211;-69
2021/12/14 02:19:51;;;;;;;11.70;8.57;;;8.80;99.90;;;;;;5048424;28;20538;-77
2021/12/14 02:22:17;;;;;;;12.37;9.03;;;8.80;99.90;;;;;;5045240;28;20198;-64
2021/12/14 02:24:49;;;;;;;13.43;9.37;;;8.80;99.90;;;;;;5048833;28;20195;-65
2021/12/14 02:27:15;;;;;;;11.03;8.77;;;8.80;99.90;;;;;;5027674;28;20179;-65
2021/12/14 02:29:44;;;;;;;13.17;8.87;;;8.80;99.90;;;;;;5046412;28;20633;-66
2021/12/14 02:32:21;;;;;;;12.33;9.37;;;8.80;99.90;;;;;;5060139;28;20195;-65
2021/12/14 02:34:50;;;;;;;9.40;8.40;;;8.80;99.90;;;;;;5035957;28;20211;-64
2021/12/14 02:37:21;;;;;;;10.93;8.77;;;8.80;99.90;;;;;;5067626;28;20221;-64
2021/12/14 02:39:49;;;;;;;13.43;7.93;;;8.90;99.90;;;;;;5026044;28;20197;-64
2021/12/14 02:42:20;;;;;;;12.17;7.90;;;8.80;99.90;;;;;;5063592;28;20222;-64
2021/12/14 02:44:49;;;;;;;10.23;8.27;;;8.80;99.90;;;;;;5033837;28;20203;-64
2021/12/14 02:47:17;;;;;;;13.27;8.47;;;8.80;99.90;;;;;;5055361;28;20628;-64
2021/12/14 02:49:43;;;;;;;10.73;8.43;;;8.70;99.90;;;;;;5044731;28;20614;-64
2021/12/14 02:52:15;;;;;;;12.90;9.17;;;8.70;99.90;;;;;;5044892;28;20203;-64
2021/12/14 02:54:50;;;;;;;10.67;9.03;;;8.70;99.90;;;;;;5033152;28;20215;-64
2021/12/14 02:57:30;;;;;;;9.00;8.10;;;8.70;99.90;;;;;;5027329;28;20309;-65
2021/12/14 02:59:57;;;;;;;10.30;9.00;;;8.70;99.90;;;;;;5034832;28;20202;-65
2021/12/14 03:02:27;;;;;;;9.90;8.03;;;8.80;99.90;;;;;;5040953;28;20213;-65
2021/12/14 03:05:04;;;;;;;9.33;8.23;;;8.80;99.90;;;;;;5045729;28;20199;-65
2021/12/14 03:07:34;;;;;;;9.63;8.00;;;8.90;99.90;;;;;;5026663;28;20197;-65
2021/12/14 03:10:20;;;;;;;10.93;8.17;;;8.80;99.90;;;;;;5045624;28;20210;-65
2021/12/14 03:12:52;;;;;;;10.40;8.83;;;8.80;99.90;;;;;;5066513;28;20174;-65
2021/12/14 03:15:26;;;;;;;9.37;7.63;;;8.70;99.90;;;;;;5040072;28;20704;-64
2021/12/14 03:17:55;;;;;;;13.50;8.67;;;8.70;99.90;;;;;;5026325;28;20227;-65
2021/12/14 03:20:31;;;;;;;10.00;8.00;;;8.60;99.90;;;;;;5037969;28;20616;-64
2021/12/14 03:23:13;;;;;;;10.00;8.17;;;8.70;99.90;;;;;;5026768;28;20198;-65
2021/12/14 03:25:43;;;;;;;12.03;8.97;;;8.60;99.90;;;;;;5032673;28;20322;-65
2021/12/14 03:28:10;;;;;;;10.90;8.80;;;8.60;99.90;;;;;;5052945;28;20191;-65
2021/12/14 03:30:49;;;;;;;12.90;9.70;;;8.50;99.90;;;;;;5042263;28;20215;-66
2021/12/14 03:33:20;;;;;;;13.73;9.20;;;8.50;99.90;;;;;;5030166;28;20211;-65
2021/12/14 03:35:51;;;;;;;10.47;8.23;;;8.50;99.90;;;;;;5026621;28;20611;-65
2021/12/14 03:38:30;;;;;;;12.30;9.23;;;8.60;99.90;;;;;;5024147;28;20218;-65
2021/12/14 03:41:15;;;;;;;8.57;7.33;;;8.60;99.90;;;;;;5026338;28;20195;-65
2021/12/14 03:43:49;;;;;;;9.53;8.00;;;8.60;99.90;;;;;;5039924;28;20211;-66
2021/12/14 03:46:15;;;;;;;9.40;7.53;;;8.60;99.90;;;;;;5026172;28;20218;-66
2021/12/14 03:48:41;;;;;;;9.10;8.13;;;8.60;99.90;;;;;;5033948;28;20843;-66
2021/12/14 03:51:07;;;;;;;12.80;9.50;;;8.60;99.90;;;;;;5053907;28;20199;-65
2021/12/14 03:53:32;;;;;;;10.80;8.23;;;8.60;99.90;;;;;;5034847;28;20576;-65
2021/12/14 03:56:03;;;;;;;12.17;8.50;;;8.60;99.90;;;;;;5040420;28;20210;-65
2021/12/14 03:58:35;;;;;;;13.07;8.80;;;8.60;99.90;;;;;;5024295;28;20204;-66
2021/12/14 04:01:09;;;;;;;13.83;8.57;;;8.60;99.90;;;;;;5025830;28;20273;-66
2021/12/14 04:03:35;;;;;;;12.57;9.93;;;8.60;99.90;;;;;;5025098;28;20368;-65
2021/12/14 04:06:02;;;;;;;11.87;8.67;;;8.60;99.90;;;;;;5043980;28;20408;-66
2021/12/14 04:08:28;;;;;;;11.33;8.27;;;8.60;99.90;;;;;;5036373;28;20204;-66
2021/12/14 04:10:58;;;;;;;11.23;8.73;;;8.50;99.90;;;;;;5043827;28;20191;-66
2021/12/14 04:13:27;;;;;;;11.47;8.83;;;8.50;99.90;;;;;;5038800;28;20288;-64
2021/12/14 04:15:54;;;;;;;12.37;8.90;;;8.50;99.90;;;;;;5055863;28;20363;-65
2021/12/14 04:18:20;;;;;;;11.00;9.17;;;8.50;99.90;;;;;;5039424;28;20218;-65
2021/12/14 04:20:47;;;;;;;12.53;9.10;;;8.60;99.90;;;;;;5057482;28;20717;-65
2021/12/14 04:23:17;;;;;;;12.40;9.03;;;8.60;99.90;;;;;;5040110;28;20204;-65
2021/12/14 04:25:45;;;;;;;15.83;9.80;;;8.50;99.90;;;;;;5048916;28;20985;-65
2021/12/14 04:28:15;;;;;;;13.17;9.60;;;8.60;99.90;;;;;;5040718;28;20285;-65
2021/12/14 04:30:41;;;;;;;12.17;9.20;;;8.50;99.90;;;;;;5042097;28;20223;-65
2021/12/14 04:33:12;;;;;;;10.50;8.50;;;8.40;99.90;;;;;;5041342;28;20207;-66
2021/12/14 04:35:41;;;;;;;16.10;9.20;;;8.50;99.90;;;;;;5025807;28;20284;-64
2021/12/14 04:38:18;;;;;;;11.77;8.27;;;8.50;99.90;;;;;;5051644;28;20222;-64
2021/12/14 04:54:21;;;;;;;15.83;10.90;;;8.40;99.90;;;;;;5029731;28;20236;-65
2021/12/14 04:56:47;;;;;;;13.20;9.83;;;8.40;99.90;;;;;;5046960;28;20232;-65
2021/12/14 04:59:17;;;;;;;11.53;8.43;;;8.40;99.90;;;;;;5034838;28;20212;-65
2021/12/14 05:01:46;;;;;;;13.00;9.27;;;8.40;99.90;;;;;;5024977;28;20553;-65
2021/12/14 05:04:17;;;;;;;18.03;10.03;;;8.30;99.90;;;;;;5031702;28;20910;-65
2021/12/14 05:06:56;;;;;;;12.40;8.87;;;8.30;99.90;;;;;;5032795;28;20198;-64
2021/12/14 05:09:28;;;;;;;12.67;9.63;;;8.30;99.90;;;;;;5025275;28;20665;-64
2021/12/14 05:12:04;;;;;;;13.17;10.07;;;8.20;99.90;;;;;;5023251;28;20312;-64
2021/12/14 05:14:30;;;;;;;12.17;9.63;;;8.20;99.90;;;;;;5034826;28;20197;-64
2021/12/14 05:16:59;;;;;;;11.83;8.63;;;8.20;99.90;;;;;;5047510;28;20233;-65
2021/12/14 05:19:27;;;;;;;14.80;8.63;;;8.20;99.90;;;;;;5030591;28;20520;-65
2021/12/14 05:22:00;;;;;;;10.73;8.63;;;8.20;99.90;;;;;;5048552;28;20195;-65
2021/12/14 05:24:27;;;;;;;13.33;9.23;;;8.20;99.90;;;;;;5039758;28;20192;-65
2021/12/14 05:27:04;;;;;;;11.70;9.23;;;8.30;99.90;;;;;;5062000;28;20194;-64
2021/12/14 05:29:32;;;;;;;14.33;8.40;;;8.30;99.90;;;;;;5035149;28;20194;-64
2021/12/14 05:32:01;;;;;;;13.57;10.27;;;8.30;99.90;;;;;;5047496;28;20211;-65
2021/12/14 05:34:28;;;;;;;13.83;9.33;;;8.30;99.90;;;;;;5030378;28;20191;-64
2021/12/14 05:36:55;;;;;;;12.23;9.43;;;8.20;99.90;;;;;;5052873;28;20214;-64
2021/12/14 05:44:34;;;;;;;12.03;8.90;;;8.20;99.90;;;;;;5038242;28;20269;-64
2021/12/14 05:47:04;;;;;;;12.73;9.23;;;8.10;99.90;;;;;;5050588;28;20218;-64
2021/12/14 05:49:29;;;;;;;13.33;8.47;;;8.10;99.90;;;;;;5038744;28;20223;-65
2021/12/14 05:51:58;;;;;;;13.73;9.73;;;8.20;99.90;;;;;;5055982;28;20676;-64
2021/12/14 05:54:28;;;;;;;12.07;9.30;;;8.20;99.90;;;;;;5033707;28;20194;-66
2021/12/14 05:56:57;;;;;;;12.33;9.13;;;8.20;99.90;;;;;;5056360;28;20218;-66
2021/12/14 05:59:27;;;;;;;11.80;8.43;;;8.20;99.90;;;;;;5037533;28;20668;-66
2021/12/14 06:01:54;;;;;;;11.60;9.40;;;8.20;99.90;;;;;;5026717;28;20192;-66
2021/12/14 06:04:20;;;;;;;12.07;8.60;;;8.20;99.90;;;;;;5036693;28;20241;-66
2021/12/14 06:06:53;;;;;;;13.97;9.20;;;8.30;99.90;;;;;;5059395;28;20202;-66
2021/12/14 06:09:23;;;;;;;11.57;8.17;;;8.30;99.90;;;;;;5028316;28;20196;-66
2021/12/14 06:11:54;;;;;;;12.77;8.73;;;8.20;99.90;;;;;;5041898;28;20188;-67
2021/12/14 06:14:22;;;;;;;11.67;8.07;;;8.20;99.90;;;;;;5035793;28;20203;-65
2021/12/14 06:16:50;;;;;;;15.33;9.00;;;8.10;99.90;;;;;;5037409;28;20231;-65
2021/12/14 06:19:21;;;;;;;11.97;9.10;;;8.10;99.90;;;;;;5036480;28;20203;-64
2021/12/14 06:21:56;;;;;;;11.93;8.87;;;8.10;99.90;;;;;;5040869;28;20191;-65
2021/12/14 06:24:27;;;;;;;10.73;8.17;;;8.10;99.90;;;;;;5036663;28;20275;-65
2021/12/14 06:26:55;;;;;;;11.60;8.23;;;8.20;99.90;;;;;;5038610;28;20205;-63
2021/12/14 06:29:29;;;;;;;10.60;8.47;;;8.20;99.90;;;;;;5032654;28;20205;-64
2021/12/14 06:31:58;;;;;;;12.87;9.03;;;8.10;99.90;;;;;;5032756;28;20294;-63
2021/12/14 06:34:28;;;;;;;25.20;16.53;;;8.10;99.90;;;;;;5036012;28;20586;-65
2021/12/14 06:37:26;;;;;;;13.13;9.07;;;8.10;99.90;;;;;;5036174;28;20251;-63
2021/12/14 06:40:19;;;;;;;9.40;7.80;;;8.10;99.90;;;;;;5030582;28;20269;-65
2021/12/14 06:42:57;;;;;;;12.70;8.93;;;8.10;99.90;;;;;;5036343;28;20206;-65
2021/12/14 06:45:39;;;;;;;11.67;8.60;;;8.10;99.90;;;;;;5035484;28;20211;-66
2021/12/14 06:48:20;;;;;;;11.97;8.67;;;8.20;99.90;;;;;;5035913;28;20791;-64
2021/12/14 06:50:59;;;;;;;13.13;9.63;;;8.20;99.90;;;;;;5035856;28;20179;-66
2021/12/14 06:53:26;;;;;;;10.87;7.97;;;8.10;99.90;;;;;;5034849;28;20202;-63
2021/12/14 06:55:53;;;;;;;10.37;8.47;;;8.10;99.90;;;;;;5037027;28;20187;-65
2021/12/14 06:58:22;;;;;;;10.07;7.83;;;8.10;99.90;;;;;;5033827;28;20268;-64
2021/12/14 07:01:08;;;;;;;10.27;8.17;;;8.20;99.90;;;;;;5039250;28;20591;-70
2021/12/14 07:03:55;;;;;;;9.77;8.53;;;8.20;99.90;;;;;;5032402;28;20305;-70
2021/12/14 07:06:26;;;;;;;9.80;7.90;;;8.30;99.90;;;;;;5034641;28;20314;-71
2021/12/14 07:08:53;;;;;;;10.93;8.47;;;8.30;99.90;;;;;;5035285;28;20202;-72
2021/12/14 07:11:24;;;;;;;10.77;8.23;;;8.30;99.90;;;;;;5035967;28;20419;-73
2021/12/14 07:13:52;;;;;;;11.47;7.67;;;8.30;99.90;;;;;;5035095;28;20213;-71
2021/12/14 07:16:27;;;;;;;12.77;8.47;;;8.30;99.90;;;;;;5035862;28;20234;-73
2021/12/14 07:18:55;;;;;;;11.43;8.37;;;8.30;99.90;;;;;;5032908;28;20284;-67
2021/12/14 07:21:36;;;;;;;11.27;7.60;;;8.20;99.90;;;;;;5038904;28;20197;-71
2021/12/14 07:24:23;;;;;;;10.70;7.60;;;8.20;99.90;;;;;;5033617;28;20580;-69
2021/12/14 07:26:51;;;;;;;10.27;8.40;;;8.20;99.90;;;;;;5037405;28;20184;-70
2021/12/14 07:29:24;;;;;;;9.70;7.97;;;8.20;99.90;;;;;;5035433;28;20194;-68
2021/12/14 07:31:50;;;;;;;8.87;7.97;;;8.20;99.90;;;;;;5039152;28;20290;-72
2021/12/14 07:34:20;;;;;;;11.07;8.50;;;8.20;99.90;;;;;;5036061;28;20211;-87
2021/12/14 07:36:46;;;;;;;10.60;7.90;;;8.20;99.90;;;;;;5030509;28;20261;-86
2021/12/14 07:39:14;;;;;;;11.60;7.20;;;8.30;99.90;;;;;;5032146;28;20207;-67
2021/12/14 07:41:42;;;;;;;12.67;7.93;;;8.20;99.90;;;;;;5036799;28;20220;-66
2021/12/14 07:44:15;;;;;;;11.70;7.67;;;8.20;99.90;;;;;;5034458;28;20200;-68
2021/12/14 07:46:56;;;;;;;10.87;8.53;;;8.20;99.90;;;;;;5036703;28;20282;-68
2021/12/14 07:49:24;;;;;;;8.93;7.70;;;8.20;99.90;;;;;;5035205;28;20887;-69
2021/12/14 07:52:07;;;;;;;10.57;7.83;;;8.20;99.90;;;;;;5037739;28;20229;-68
2021/12/14 07:54:43;;;;;;;11.47;8.60;;;8.20;99.90;;;;;;5037645;28;20189;-69
2021/12/14 07:57:26;;;;;;;10.50;8.50;;;8.20;99.90;;;;;;5032028;28;20214;-69
2021/12/14 07:59:55;;;;;;;9.83;7.97;;;8.30;99.90;;;;;;5034499;28;20229;-70
2021/12/14 08:02:22;;;;;;;9.93;8.37;;;8.20;99.90;;;;;;5033547;28;20625;-70
2021/12/14 08:04:50;;;;;;;10.50;7.67;;;8.20;99.90;;;;;;5034962;28;20479;-69
2021/12/14 08:07:32;;;;;;;10.47;8.40;;;8.20;99.90;;;;;;5034343;28;20203;-72
2021/12/14 08:10:16;;;;;;;11.23;8.07;;;8.20;99.90;;;;;;5036857;28;20194;-70
2021/12/14 08:13:14;;;;;;;12.23;8.53;;;8.20;99.90;;;;;;5031765;28;20207;-70
2021/12/14 08:15:47;;;;;;;11.27;8.27;;;8.20;99.90;;;;;;5039175;28;20320;-71
2021/12/14 08:18:33;;;;;;;12.93;9.07;;;8.20;99.90;;;;;;5036940;28;20596;-68
2021/12/14 08:21:04;;;;;;;9.43;7.73;;;8.20;99.90;;;;;;5034300;28;20228;-69
2021/12/14 08:23:36;;;;;;;10.20;8.70;;;8.10;99.90;;;;;;5033503;28;20195;-68
2021/12/14 08:26:12;;;;;;;11.17;8.03;;;8.20;99.90;;;;;;5033392;28;20187;-68
2021/12/14 08:28:58;;;;;;;11.33;7.73;;;8.20;99.90;;;;;;5031762;28;20284;-68
2021/12/14 08:31:36;;;;;;;10.13;7.90;;;8.20;99.90;;;;;;5034330;28;20183;-69
2021/12/14 08:34:08;;;;;;;11.63;8.27;;;8.30;99.90;;;;;;5032405;28;20670;-70
2021/12/14 08:36:47;;;;;;;10.30;8.37;;;8.20;99.90;;;;;;5024614;28;20791;-70
2021/12/14 08:39:26;;;;;;;9.40;8.10;;;8.20;99.90;;;;;;5024853;28;20277;-86
2021/12/14 08:42:14;;;;;;;11.47;9.00;;;8.20;99.90;;;;;;5027736;28;20195;-84
2021/12/14 08:44:50;;;;;;;11.77;9.10;;;8.10;99.90;;;;;;5048264;28;20195;-84
2021/12/14 08:47:24;;;;;;;10.73;7.97;;;8.10;99.90;;;;;;5033498;28;20234;-83
2021/12/14 08:49:49;;;;;;;10.83;8.20;;;8.10;99.90;;;;;;5032195;28;20195;-70
2021/12/14 08:52:15;;;;;;;11.27;8.23;;;8.10;99.90;;;;;;5041644;28;20203;-71
2021/12/14 08:54:41;;;;;;;11.43;9.00;;;8.00;99.90;;;;;;5031672;28;20531;-71
2021/12/14 08:57:16;;;;;;;11.80;8.73;;;8.00;99.90;;;;;;5042384;28;20891;-73
2021/12/14 08:59:47;;;;;;;11.97;8.83;;;8.00;99.90;;;;;;5031660;28;20190;-74
2021/12/14 09:02:15;;;;;;;10.97;8.20;;;8.00;99.90;;;;;;5028174;28;20375;-74
2021/12/14 09:04:52;;;;;;;10.40;7.93;;;8.00;99.90;;;;;;5033756;28;20175;-74
2021/12/14 09:07:25;;;;;;;13.00;8.93;;;8.00;99.90;;;;;;5033639;28;20345;-76
2021/12/14 09:09:53;;;;;;;11.47;9.33;;;8.00;99.90;;;;;;5036010;28;20183;-73
2021/12/14 09:12:30;;;;;;;12.23;8.43;;;8.10;99.90;;;;;;5045257;28;20265;-73
2021/12/14 09:15:04;;;;;;;11.43;8.63;;;8.10;99.90;;;;;;5041557;28;20201;-73
2021/12/14 09:17:31;;;;;;;10.50;8.67;;;8.20;99.90;;;;;;5054676;28;20296;-77
2021/12/14 09:20:01;;;;;;;9.30;8.37;;;8.10;99.90;;;;;;5035101;28;20316;-74
2021/12/14 09:22:34;;;;;;;11.03;8.13;;;8.10;99.90;;;;;;5036551;28;20703;-75
2021/12/14 09:25:01;;;;;;;11.47;8.37;;;8.10;99.90;;;;;;5036373;28;20279;-73
2021/12/14 09:27:30;;;;;;;11.87;9.10;;;8.10;99.90;;;;;;5036557;28;20202;-76
2021/12/14 09:29:58;;;;;;;12.03;8.07;;;8.10;99.90;;;;;;5038392;28;20197;-74
2021/12/14 09:32:27;;;;;;;10.63;8.30;;;8.10;99.90;;;;;;5033489;28;20215;-75
2021/12/14 09:34:57;;;;;;;10.30;8.83;;;8.10;99.90;;;;;;5036181;28;20187;-76
2021/12/14 09:37:26;;;;;;;10.93;8.57;;;8.20;99.90;;;;;;5037331;28;20230;-75
2021/12/14 09:40:00;;;;;;;10.60;9.00;;;8.20;99.90;;;;;;5038524;28;20187;-76
2021/12/14 09:42:31;;;;;;;12.47;8.80;;;8.30;99.90;;;;;;5031490;28;20209;-75
2021/12/14 09:45:00;;;;;;;11.47;8.97;;;8.30;99.90;;;;;;5032097;28;20183;-75
2021/12/14 09:47:30;;;;;;;15.13;8.57;;;8.20;99.90;;;;;;5060688;28;20211;-75
2021/12/14 09:50:00;;;;;;;10.37;8.17;;;8.20;99.90;;;;;;5034292;28;20644;-65
2021/12/14 09:52:29;;;;;;;10.70;9.27;;;8.20;99.90;;;;;;5035938;28;20259;-66
2021/12/14 09:54:56;;;;;;;10.20;8.97;;;8.10;99.90;;;;;;5039610;28;20189;-67
2021/12/14 09:57:29;;;;;;;10.60;7.83;;;8.10;99.90;;;;;;5037121;28;20229;-67
2021/12/14 09:59:57;;;;;;;9.33;7.77;;;8.20;99.90;;;;;;5037953;28;20270;-65
2021/12/14 10:02:34;;;;;;;10.03;7.93;;;8.20;99.90;;;;;;5037421;28;20214;-66
2021/12/14 10:05:11;;;;;;;11.10;8.40;;;8.30;99.90;;;;;;5038524;28;20187;-65
2021/12/14 10:07:37;;;;;;;10.20;8.37;;;8.30;99.90;;;;;;5030993;28;20337;-66
2021/12/14 10:10:06;;;;;;;9.20;7.63;;;8.30;99.90;;;;;;5042475;28;20678;-62
2021/12/14 10:12:51;;;;;;;9.03;7.77;;;8.30;99.90;;;;;;5055147;28;20215;-64
2021/12/14 10:15:40;;;;;;;9.03;8.07;;;8.40;99.90;;;;;;5035420;28;20249;-65
2021/12/14 10:18:11;;;;;;;10.23;8.03;;;8.60;99.90;;;;;;5055940;28;20211;-65
2021/12/14 10:20:49;;;;;;;9.93;8.37;;;8.50;99.90;;;;;;5048043;28;20194;-64
2021/12/14 10:23:16;;;;;;;10.80;8.73;;;8.50;99.90;;;;;;5048295;28;20270;-66
2021/12/14 10:25:42;;;;;;;10.97;8.77;;;8.40;99.90;;;;;;5047917;28;20262;-65
2021/12/14 10:28:09;;;;;;;9.97;8.57;;;8.40;99.90;;;;;;5047756;28;20179;-65
2021/12/14 10:30:50;;;;;;;9.30;8.37;;;8.40;99.90;;;;;;5048333;28;20182;-66
2021/12/14 10:33:16;;;;;;;11.17;8.60;;;8.50;99.90;;;;;;5048237;28;20213;-65
2021/12/14 10:35:48;;;;;;;10.87;9.13;;;8.50;99.90;;;;;;5047835;28;20191;-66
2021/12/14 10:38:28;;;;;;;9.47;8.50;;;8.50;99.90;;;;;;5047433;28;20677;-65
2021/12/14 10:44:04;;;;;;;11.77;9.07;;;8.50;99.90;;;;;;5047419;28;20293;-64
2021/12/14 10:46:35;;;;;;;9.80;8.80;;;8.50;99.90;;;;;;5047419;28;20264;-64
2021/12/14 10:49:03;;;;;;;11.37;9.33;;;8.50;99.90;;;;;;5047174;28;20182;-65
2021/12/14 10:51:35;;;;;;;10.60;8.67;;;8.50;99.90;;;;;;5046952;28;20183;-65
2021/12/14 10:54:03;;;;;;;12.83;8.60;;;8.50;99.90;;;;;;5047398;28;20250;-65
2021/12/14 10:56:35;;;;;;;11.77;8.53;;;8.50;99.90;;;;;;5047066;28;20208;-66
2021/12/14 10:59:04;;;;;;;10.83;9.13;;;8.60;99.90;;;;;;5046774;28;20176;-65
2021/12/14 11:01:33;;;;;;;11.03;8.83;;;8.50;99.90;;;;;;5047075;28;20199;-65
2021/12/14 11:04:05;;;;;;;13.43;9.17;;;8.60;99.90;;;;;;5047315;28;20197;-65
2021/12/14 11:06:33;;;;;;;11.93;8.30;;;8.70;99.90;;;;;;5047054;28;20178;-64
2021/12/14 11:11:53;;;;;;;11.60;9.03;;;8.80;99.90;;;;;;5047333;28;20186;-64
2021/12/14 11:14:24;;;;;;;11.60;8.87;;;8.80;99.90;;;;;;5046707;28;20183;-64
2021/12/14 11:19:43;;;;;;;11.57;10.00;;;8.80;99.90;;;;;;5046588;28;20191;-64
2021/12/14 11:22:22;;;;;;;12.67;10.10;;;8.80;99.90;;;;;;5046930;28;20171;-64
2021/12/14 11:24:53;;;;;;;12.30;9.33;;;8.80;99.90;;;;;;5046920;28;20233;-64
2021/12/14 11:27:29;;;;;;;9.87;8.57;;;8.80;99.90;;;;;;5046723;28;20183;-64
2021/12/14 11:30:17;;;;;;;10.33;7.70;;;8.90;99.90;;;;;;5046913;28;20187;-64
2021/12/14 11:32:48;;;;;;;10.50;8.37;;;9.00;99.90;;;;;;5046862;28;20266;-64
2021/12/14 11:35:25;;;;;;;12.27;8.83;;;8.90;99.90;;;;;;5046869;28;20196;-64
2021/12/14 11:37:54;;;;;;;11.73;9.20;;;9.00;99.90;;;;;;5045773;28;20208;-65
2021/12/14 11:40:23;;;;;;;10.57;8.13;;;9.00;99.90;;;;;;5046436;28;20179;-64
2021/12/14 11:42:49;;;;;;;9.23;7.80;;;9.00;99.90;;;;;;5046502;28;20175;-64
2021/12/14 11:45:19;;;;;;;10.40;8.30;;;9.00;99.90;;;;;;5046414;28;20175;-64
2021/12/14 11:47:54;;;;;;;10.73;9.13;;;8.90;99.90;;;;;;5046269;28;20202;-66
2021/12/14 11:50:32;;;;;;;10.10;8.03;;;8.90;99.90;;;;;;5046393;28;20644;-66
2021/12/14 11:53:09;;;;;;;10.93;7.80;;;9.00;99.90;;;;;;5046354;28;20191;-66
2021/12/14 11:55:50;;;;;;;13.27;9.27;;;8.90;99.90;;;;;;5046368;28;20821;-64
2021/12/14 11:58:33;;;;;;;11.70;8.20;;;9.00;99.90;;;;;;5046086;28;20219;-64
2021/12/14 12:01:08;;;;;;;9.93;8.13;;;9.10;99.90;;;;;;5046482;28;20223;-65
2021/12/14 12:03:43;;;;;;;9.20;7.93;;;9.20;99.90;;;;;;5046403;28;20183;-65
2021/12/14 12:12:00;;;;;;;10.87;8.97;;;9.20;99.90;;;;;;5046126;28;20269;-65
2021/12/14 12:14:47;;;;;;;11.23;8.43;;;9.20;99.90;;;;;;5045476;28;20183;-66
2021/12/14 12:17:45;;;;;;;11.60;8.87;;;9.30;99.90;;;;;;5045809;28;20225;-65
2021/12/14 12:20:41;;;;;;;11.73;8.90;;;9.20;99.90;;;;;;5045682;28;20182;-65
2021/12/14 12:23:10;;;;;;;10.47;8.07;;;9.10;99.90;;;;;;5048315;28;20178;-66
2021/12/14 12:25:48;;;;;;;9.93;8.83;;;9.20;99.90;;;;;;5047077;28;20317;-66
2021/12/14 12:28:25;;;;;;;10.43;9.30;;;9.20;99.90;;;;;;5048556;28;20291;-70
2021/12/14 12:31:08;;;;;;;10.57;8.97;;;9.10;99.90;;;;;;5048849;28;20506;-67
2021/12/14 12:33:41;;;;;;;9.50;8.13;;;9.10;99.90;;;;;;5051821;28;20175;-66
2021/12/14 12:36:12;;;;;;;10.57;8.53;;;9.00;99.90;;;;;;5049675;28;20724;-68
2021/12/14 12:39:01;;;;;;;12.30;8.40;;;9.10;99.90;;;;;;5048752;28;20175;-66
2021/12/14 12:41:35;;;;;;;11.13;8.50;;;9.20;99.90;;;;;;5048581;28;20465;-65
2021/12/14 12:44:21;;;;;;;10.33;8.57;;;9.20;99.90;;;;;;5047709;28;20198;-65
2021/12/14 12:47:16;;;;;;;9.90;8.33;;;9.10;99.90;;;;;;5047632;28;20197;-65
2021/12/14 12:49:43;;;;;;;10.07;9.07;;;9.10;99.90;;;;;;5046804;28;20191;-64
2021/12/14 12:52:15;;;;;;;9.57;8.53;;;9.10;99.90;;;;;;5046144;28;20187;-65
2021/12/14 12:54:43;;;;;;;11.07;8.83;;;9.10;99.90;;;;;;5045554;28;20200;-66
2021/12/14 12:57:12;;;;;;;10.40;9.23;;;9.10;99.90;;;;;;5045209;28;20203;-63
2021/12/14 12:59:55;;;;;;;12.33;9.63;;;9.10;99.90;;;;;;5045413;28;20715;-73
2021/12/14 13:02:21;;;;;;;12.33;9.27;;;9.00;99.90;;;;;;5045590;28;20637;-74
2021/12/14 13:04:51;;;;;;;13.17;9.20;;;8.90;99.90;;;;;;5044838;28;20236;-74
2021/12/14 13:07:18;;;;;;;10.13;8.53;;;8.90;99.90;;;;;;5044885;28;20186;-75
2021/12/14 13:10:10;;;;;;;10.63;9.07;;;9.00;99.90;;;;;;5039629;28;20300;-72
2021/12/14 13:12:46;;;;;;;10.40;8.67;;;9.00;99.90;;;;;;5036632;28;20183;-74
2021/12/14 13:15:44;;;;;;;12.63;9.53;;;9.00;99.90;;;;;;5034736;28;20222;-72
2021/12/14 13:18:15;;;;;;;11.30;9.07;;;9.00;99.90;;;;;;5034294;28;20210;-73
2021/12/14 13:20:42;;;;;;;12.97;9.93;;;9.00;99.90;;;;;;5033605;28;20230;-71
2021/12/14 13:23:08;;;;;;;11.13;9.60;;;9.00;99.90;;;;;;5035446;28;20210;-71
2021/12/14 13:25:35;;;;;;;12.00;9.03;;;8.90;99.90;;;;;;5035030;28;20203;-70
2021/12/14 13:28:01;;;;;;;11.23;8.73;;;8.70;99.90;;;;;;5033698;28;20210;-75
2021/12/14 13:30:28;;;;;;;14.50;10.93;;;8.60;99.90;;;;;;5034914;28;20670;-75
2021/12/14 13:32:53;;;;;;;12.47;10.40;;;8.40;99.90;;;;;;5035017;28;20230;-75
2021/12/14 13:35:24;;;;;;;15.43;11.17;;;8.20;99.90;;;;;;5044747;28;20237;-73
2021/12/14 13:37:56;;;;;;;17.00;10.57;;;8.10;99.90;;;;;;5044765;28;20214;-75
2021/12/14 13:40:29;;;;;;;15.27;10.63;;;8.10;99.90;;;;;;5044569;28;20351;-75
2021/12/14 13:43:06;;;;;;;14.07;10.90;;;8.10;99.90;;;;;;5044828;28;20183;-75
2021/12/14 13:45:36;;;;;;;14.80;10.13;;;8.10;99.90;;;;;;5037007;28;20180;-76
2021/12/14 13:48:05;;;;;;;15.07;12.43;;;8.00;99.90;;;;;;5032767;28;20188;-75
2021/12/14 13:50:35;;;;;;;14.90;11.47;;;8.00;99.90;;;;;;5025685;28;20183;-74
2021/12/14 13:53:01;;;;;;;15.80;12.70;;;8.20;99.90;;;;;;5041955;28;20221;-74
2021/12/14 13:55:32;;;;;;;16.10;12.50;;;8.30;99.90;;;;;;5038002;28;20650;-69